Latest Weather Observations for Jacup

IDW60801

Issued at 11:32 pm WST Sunday 19 April 2015 (issued every 30 minutes, with the page automatically refreshed every 10 minutes)

About weather observations | Map of weather stations | Latest weather observations for WA | Other Formats
Station Details ID: 010905 Name: JACUP Lat: -33.89 Lon: 119.11 Height: 305.0 m
Data from the previous 72 hours. | See also: Recent months at Jacup
Date/Time
WST
Temp
°C
App
Temp
°C
Dew
Point
Rel
Hum
%
Delta-T
°C
Wind Press
QNH
hPa
Press
MSL
hPa
Rain
since 9 am
mm
Dir
 
Spd
km/h
Gust
km/h
Spd
kts
Gust
kts
19/11:30pm 13.9 10.1 7.4 65 3.2 NE 17 24 9 13 1029.4 1028.8 0.0
19/11:00pm 14.1 10.1 8.3 68 2.9 NE 19 24 10 13 1029.5 1028.9 0.0
19/10:30pm 13.1 10.4 9.0 76 2.1 NE 13 19 7 10 1029.9 1029.3 0.0
19/10:00pm 12.3 9.9 9.9 85 1.2 ENE 13 15 7 8 1030.0 1029.4 0.0
19/09:30pm 12.1 9.7 10.0 87 1.1 ENE 13 15 7 8 1030.0 1029.4 0.0
19/09:00pm 12.2 10.2 10.3 88 1.0 ENE 11 15 6 8 1029.9 1029.3 0.0
19/08:30pm 12.8 11.4 10.9 88 1.0 ENE 9 11 5 6 1029.7 1029.1 0.0
19/08:00pm 13.5 11.8 11.2 86 1.2 E 11 13 6 7 1029.5 1028.9 0.0
19/07:30pm 14.3 13.1 11.5 83 1.5 E 9 13 5 7 1029.4 1028.8 0.0
19/07:00pm 15.3 13.7 11.5 78 2.1 E 11 15 6 8 1029.2 1028.6 0.0
19/06:30pm 16.6 14.6 11.5 72 2.8 E 13 17 7 9 1028.9 1028.3 0.0
19/06:00pm 17.4 15.8 10.3 63 3.8 ENE 9 11 5 6 1028.5 1027.9 0.0
19/05:30pm 19.6 17.6 10.0 54 5.2 ENE 11 13 6 7 1028.1 1027.5 0.0
19/05:00pm 21.5 18.7 10.0 48 6.3 NE 15 20 8 11 1027.9 1027.2 0.0
19/04:30pm 22.6 19.1 10.1 45 6.9 ENE 19 24 10 13 1027.8 1027.1 0.0
19/04:00pm 22.9 20.1 10.0 44 7.1 NE 15 24 8 13 1027.9 1027.2 0.0
19/03:30pm 23.1 20.5 9.5 42 7.5 NE 13 20 7 11 1027.8 1027.1 0.0
19/03:00pm 23.1 20.9 9.5 42 7.4 NE 11 20 6 11 1027.8 1027.1 0.0
19/02:30pm 23.9 21.5 9.9 41 7.8 NNE 13 20 7 11 1027.8 1027.1 0.0
19/02:00pm 23.5 21.1 9.9 42 7.5 NE 13 20 7 11 1028.0 1027.3 0.0
19/01:30pm 23.3 21.5 10.7 45 7.1 N 11 19 6 10 1028.1 1027.5 0.0
19/01:00pm 22.6 20.0 10.7 47 6.6 NNE 15 20 8 11 1028.3 1027.7 0.0
19/12:30pm 22.1 19.8 10.6 48 6.4 NNE 13 20 7 11 1028.7 1028.1 0.0
19/12:00pm 21.6 19.0 10.7 50 6.0 NNE 15 24 8 13 1029.1 1028.5 0.0
19/11:30am 20.6 17.7 11.0 54 5.3 NNE 17 26 9 14 1029.6 1029.0 0.0
19/11:00am 20.5 17.4 11.7 57 4.9 N 19 30 10 16 1029.9 1029.3 0.0
19/10:30am 18.8 15.6 11.4 62 4.1 NNE 19 26 10 14 1030.2 1029.6 0.0
19/10:00am 17.9 14.1 11.2 65 3.7 NNE 22 30 12 16 1030.2 1029.6 0.0
19/09:30am 16.7 13.2 10.8 68 3.2 NNE 20 30 11 16 1030.5 1029.9 0.0
19/09:00am 15.6 12.1 10.8 73 2.6 NNE 20 33 11 18 1030.7 1030.1 0.0
19/08:30am 14.5 10.6 10.9 79 1.9 NNE 22 30 12 16 1030.7 1030.1 0.0
19/08:00am 12.9 8.9 10.3 84 1.4 NNE 22 35 12 19 1030.4 1029.8 0.0
19/07:30am 12.1 8.0 10.2 88 1.0 NNE 22 33 12 18 1030.1 1029.5 0.0
19/07:00am 11.1 7.1 9.2 88 1.0 NNE 20 30 11 16 1029.7 1029.1 0.0
19/06:30am 10.7 6.6 8.6 87 1.0 NE 20 32 11 17 1029.4 1028.8 0.0
19/06:00am 10.7 6.6 8.5 86 1.1 NE 20 28 11 15 1029.2 1028.6 0.0
19/05:30am 10.1 6.0 8.0 87 1.0 NE 19 26 10 14 1029.2 1028.6 0.0
19/05:00am 10.0 5.9 7.8 86 1.1 NE 19 26 10 14 1029.1 1028.5 0.0
19/04:30am 10.3 6.2 7.7 84 1.3 NE 19 24 10 13 1028.9 1028.3 0.0
19/04:00am 10.3 6.0 7.7 84 1.3 NE 20 28 11 15 1028.6 1028.0 0.0
19/03:30am 10.3 5.9 7.5 83 1.4 NE 20 28 11 15 1028.5 1027.9 0.0
19/03:00am 10.5 6.2 7.7 83 1.4 NE 20 28 11 15 1028.4 1027.8 0.0
19/02:30am 10.5 6.4 7.7 83 1.4 NE 19 28 10 15 1028.7 1028.1 0.0
19/02:00am 10.5 6.5 8.1 85 1.2 ENE 19 26 10 14 1028.9 1028.3 0.0
19/01:30am 10.5 6.9 8.3 86 1.1 ENE 17 24 9 13 1029.1 1028.5 0.0
19/01:00am 10.7 7.2 8.6 87 1.0 ENE 17 22 9 12 1029.1 1028.5 0.0
19/12:30am 10.8 7.3 8.7 87 1.1 ENE 17 24 9 13 1029.0 1028.4 0.0
19/12:00am 10.6 7.1 8.7 88 0.9 ENE 17 20 9 11 1029.0 1028.4 0.0
 
Date/Time
WST
Temp
°C
App
Temp
°C
Dew
Point
Rel
Hum
%
Delta-T
°C
Wind Press
QNH
hPa
Press
MSL
hPa
Rain
since 9 am
mm
Dir
 
Spd
km/h
Gust
km/h
Spd
kts
Gust
kts
18/11:30pm 10.4 7.2 8.5 88 0.9 E 15 19 8 10 1029.0 1028.4 0.0
18/11:00pm 10.4 7.6 8.5 88 0.9 ENE 13 19 7 10 1029.0 1028.4 0.0
18/10:30pm 10.6 7.1 8.7 88 1.0 E 17 20 9 11 1029.1 1028.5 0.0
18/10:00pm 11.2 7.7 8.9 86 1.2 ENE 17 20 9 11 1029.1 1028.5 0.0
18/09:30pm 11.4 8.4 9.1 86 1.2 E 15 20 8 11 1029.2 1028.6 0.0
18/09:00pm 11.9 9.3 9.5 85 1.2 E 13 17 7 9 1029.1 1028.5 0.0
18/08:30pm 12.7 9.8 9.7 82 1.6 ENE 15 20 8 11 1029.0 1028.4 0.0
18/08:00pm 13.2 9.9 9.6 79 1.9 ENE 17 22 9 12 1028.9 1028.3 0.0
18/07:30pm 13.9 10.4 10.3 79 1.9 E 19 24 10 13 1028.8 1028.2 0.0
18/07:00pm 14.2 10.8 10.4 78 2.0 E 19 28 10 15 1028.6 1028.0 0.0
18/06:30pm 14.1 10.4 10.1 77 2.1 E 20 28 11 15 1028.3 1027.7 0.0
18/06:00pm 14.1 10.6 10.3 78 2.0 E 19 30 10 16 1028.2 1027.6 0.0
18/05:30pm 14.5 11.1 10.5 77 2.1 E 19 28 10 15 1027.9 1027.2 0.0
18/05:00pm 14.6 11.0 10.4 76 2.2 E 20 32 11 17 1027.5 1026.9 0.0
18/04:30pm 14.9 11.0 10.9 77 2.2 E 22 32 12 17 1027.2 1026.6 0.0
18/04:00pm 15.2 10.9 10.8 75 2.4 E 24 33 13 18 1027.1 1026.5 0.0
18/03:30pm 15.5 11.2 10.9 74 2.5 E 24 35 13 19 1027.1 1026.5 0.0
18/03:00pm 15.1 10.9 11.1 77 2.2 ESE 24 32 13 17 1027.0 1026.4 0.0
18/02:30pm 15.4 11.5 12.0 80 1.9 ESE 24 35 13 19 1026.9 1026.3 0.0
18/02:00pm 14.8 10.6 12.5 86 1.3 ESE 26 39 14 21 1026.9 1026.3 0.0
18/01:30pm 15.8 12.7 12.2 79 2.0 ESE 20 32 11 17 1026.9 1026.3 0.0
18/01:00pm 16.7 13.6 12.3 75 2.4 ESE 20 28 11 15 1026.8 1026.2 0.0
18/12:30pm 15.6 11.6 11.8 78 2.1 ESE 24 32 13 17 1027.2 1026.6 0.0
18/12:00pm 15.4 11.9 12.3 82 1.7 ESE 22 33 12 18 1027.5 1026.9 0.0
18/11:30am 14.4 10.3 12.6 89 1.0 ESE 26 41 14 22 1027.5 1026.9 0.0
18/11:00am 14.7 11.1 13.1 90 0.9 ESE 24 35 13 19 1027.6 1027.0 0.0
18/10:30am 14.5 10.9 13.2 92 0.7 ESE 24 35 13 19 1027.6 1027.0 0.0
18/10:00am 14.2 10.0 13.4 95 0.4 ESE 28 37 15 20 1027.4 1026.8 0.0
18/09:30am 14.1 11.1 13.6 97 0.3 SE 22 32 12 17 1027.2 1026.6 0.0
18/09:00am 13.9 11.4 13.4 97 0.3 SE 19 24 10 13 1026.9 1026.3 0.6
18/08:30am 13.5 10.6 13.0 97 0.3 SE 20 30 11 16 1026.7 1026.1 0.4
18/08:00am 13.1 10.7 12.6 97 0.3 SE 17 24 9 13 1026.3 1025.7 0.4
18/07:30am 12.6 11.5 12.1 97 0.3 S 9 13 5 7 1025.8 1025.2 0.2
18/07:00am 11.7 10.4 11.2 97 0.3 SSW 9 13 5 7 1025.4 1024.8 0.2
18/06:30am 11.1 9.6 10.6 97 0.3 SW 9 11 5 6 1025.0 1024.3 0.0
18/06:00am 10.3 8.2 9.7 96 0.3 WSW 11 15 6 8 1024.9 1024.2 0.0
18/05:30am 9.3 6.9 8.7 96 0.3 W 11 15 6 8 1024.7 1024.0 0.0
18/05:00am 8.6 6.0 7.8 95 0.4 W 11 13 6 7 1024.5 1023.8 0.0
18/04:30am 8.7 6.5 7.9 95 0.4 WNW 9 11 5 6 1024.1 1023.5 0.0
18/04:00am 8.6 6.4 7.8 95 0.4 WNW 9 11 5 6 1023.7 1023.1 0.0
18/03:30am 8.3 6.0 7.4 94 0.4 WNW 9 11 5 6 1023.5 1022.9 0.0
18/03:00am 8.5 6.2 7.6 94 0.4 W 9 11 5 6 1023.4 1022.8 0.0
18/02:30am 8.6 6.3 7.5 93 0.5 WNW 9 11 5 6 1023.5 1022.9 0.0
18/02:00am 9.2 7.1 8.3 94 0.4 WNW 9 11 5 6 1023.5 1022.9 0.0
18/01:30am 9.4 7.8 8.6 95 0.4 W 7 9 4 5 1023.6 1023.0 0.0
18/01:00am 8.7 6.1 7.8 94 0.4 WSW 11 13 6 7 1023.6 1023.0 0.0
18/12:30am 8.6 6.4 7.7 94 0.4 SW 9 9 5 5 1023.3 1022.7 0.0
18/12:00am 9.2 7.5 8.3 94 0.4 SSW 7 9 4 5 1023.3 1022.7 0.0
 
Date/Time
WST
Temp
°C
App
Temp
°C
Dew
Point
Rel
Hum
%
Delta-T
°C
Wind Press
QNH
hPa
Press
MSL
hPa
Rain
since 9 am
mm
Dir
 
Spd
km/h
Gust
km/h
Spd
kts
Gust
kts
17/11:30pm 9.4 9.1 8.5 94 0.4 CALM 0 7 0 4 1023.2 1022.6 0.0
17/11:00pm 9.3 8.9 8.4 94 0.4 CALM 0 0 0 0 1023.4 1022.8 0.0
17/10:30pm 9.6 9.2 8.4 92 0.6 CALM 0 0 0 0 1023.6 1023.0 0.0
17/10:00pm 10.5 10.4 9.4 93 0.6 CALM 0 0 0 0 1023.8 1023.2 0.0
17/09:30pm 10.3 10.1 8.9 91 0.7 CALM 0 0 0 0 1023.7 1023.1 0.0
17/09:00pm 11.2 9.4 9.6 90 0.8 SSE 9 11 5 6 1023.5 1022.9 0.0
17/08:30pm 10.0 8.5 8.3 89 0.8 ESE 6 7 3 4 1023.3 1022.7 0.0
17/08:00pm 10.3 8.7 8.2 87 1.0 SE 6 7 3 4 1023.1 1022.5 0.0
17/07:30pm 11.8 10.3 8.6 81 1.6 SE 6 7 3 4 1023.2 1022.6 0.0
17/07:00pm 12.4 10.5 8.9 79 1.8 SE 9 11 5 6 1023.0 1022.4 0.0
17/06:30pm 13.6 12.1 9.1 74 2.3 ESE 7 13 4 7 1022.8 1022.2 0.0
17/06:00pm 15.2 13.4 9.3 68 3.1 SSE 9 13 5 7 1022.3 1021.6 0.0
17/05:30pm 17.4 14.8 7.7 53 5.0 SSW 11 20 6 11 1021.9 1021.2 0.0
17/05:00pm 19.3 16.4 6.4 43 6.5 SSW 11 17 6 9 1021.7 1021.0 0.0
17/04:30pm 20.9 17.2 6.4 39 7.4 SW 15 22 8 12 1021.7 1021.0 0.0
17/04:00pm 21.3 17.2 6.0 37 7.8 SW 17 28 9 15 1021.7 1021.0 0.0
17/03:30pm 21.8 18.0 5.7 35 8.2 WSW 15 20 8 11 1021.6 1020.9 0.0
17/03:00pm 21.9 18.2 6.2 36 8.0 W 15 24 8 13 1021.7 1021.0 0.0
17/02:30pm 22.1 17.6 6.3 36 8.1 SW 19 32 10 17 1021.9 1021.2 0.0
17/02:00pm 21.7 17.2 6.0 36 8.0 WSW 19 28 10 15 1022.1 1021.4 0.0
17/01:30pm 21.6 17.8 5.9 36 8.0 WSW 15 28 8 15 1022.3 1021.6 0.0
17/01:00pm 21.4 17.2 7.3 40 7.3 WSW 19 30 10 16 1022.8 1022.2 0.0
17/12:30pm 20.7 16.4 7.0 41 7.1 WSW 19 28 10 15 1023.4 1022.8 0.0
17/12:00pm 20.8 17.0 7.4 42 7.0 WSW 17 26 9 14 1024.2 1023.6 0.0
17/11:30am 19.7 15.9 7.4 45 6.4 W 17 28 9 15 1024.9 1024.2 0.0
17/11:00am 19.3 15.2 8.0 48 5.9 W 19 28 10 15 1025.4 1024.8 0.0
17/10:30am 18.6 15.6 7.7 49 5.6 W 13 20 7 11 1025.8 1025.2 0.0
17/10:00am 17.9 14.9 7.9 52 5.1 WNW 13 19 7 10 1026.1 1025.5 0.0
17/09:30am 17.2 14.4 8.6 57 4.5 NW 13 20 7 11 1026.5 1025.9 0.0
17/09:00am 15.7 13.0 8.9 64 3.5 NW 13 19 7 10 1026.7 1026.1 0.0
17/08:30am 14.2 11.4 8.4 68 3.0 NNW 13 19 7 10 1026.9 1026.3 0.0
17/08:00am 12.2 9.8 8.5 78 1.9 NW 11 15 6 8 1027.0 1026.4 0.0
17/07:30am 9.9 7.7 7.7 86 1.1 WNW 9 11 5 6 1026.9 1026.3 0.0
17/07:00am 8.0 5.9 6.8 92 0.6 WNW 7 9 4 5 1026.7 1026.1 0.0
17/06:30am 7.8 5.2 6.3 90 0.7 NNW 9 13 5 7 1026.6 1026.0 0.0
17/06:00am 7.5 4.1 6.0 90 0.7 N 13 19 7 10 1026.7 1026.1 0.0
17/05:30am 8.1 4.8 6.4 89 0.8 N 13 17 7 9 1026.8 1026.2 0.0
17/05:00am 7.8 4.8 6.1 89 0.8 N 11 15 6 8 1026.8 1026.2 0.0
17/04:30am 8.7 5.6 7.3 91 0.7 NNW 13 17 7 9 1027.2 1026.6 0.0
17/04:00am 7.8 4.5 6.6 92 0.6 N 13 17 7 9 1026.9 1026.3 0.0
17/03:30am 7.9 4.7 6.7 92 0.6 N 13 17 7 9 1027.1 1026.5 0.0
17/03:00am 8.1 4.9 6.9 92 0.6 N 13 17 7 9 1027.2 1026.6 0.0
17/02:30am 8.0 5.2 6.8 92 0.6 N 11 13 6 7 1027.4 1026.8 0.0
17/02:00am 8.2 5.0 7.0 92 0.6 N 13 17 7 9 1027.5 1026.9 0.0
17/01:30am 8.2 5.0 7.0 92 0.6 N 13 15 7 8 1027.9 1027.2 0.0
17/01:00am 8.3 5.5 7.1 92 0.6 N 11 13 6 7 1028.2 1027.6 0.0
17/12:30am 8.2 5.8 7.0 92 0.6 N 9 11 5 6 1028.3 1027.7 0.0
17/12:00am 8.6 5.9 7.2 91 0.7 N 11 13 6 7 1028.5 1027.9 0.0

Other Formats:

Comma delimited format used in spreadsheet applications
http://www.bom.gov.au/fwo/IDW60801/IDW60801.95636.axf

JavaScript Object Notation format (JSON) in row-major order
http://www.bom.gov.au/fwo/IDW60801/IDW60801.95636.json